createdAt,value
2016-12-10T00:00:04.913Z,6.06
2016-12-10T00:01:05.000Z,6.1
2016-12-10T00:02:04.888Z,6.14
2016-12-10T00:03:04.894Z,6.09
2016-12-10T00:04:04.836Z,6.1
2016-12-10T00:05:05.371Z,6.06
2016-12-10T00:06:04.879Z,6.1
2016-12-10T00:07:04.815Z,6.13
2016-12-10T00:08:05.433Z,6.17
2016-12-10T00:09:04.802Z,6.21
2016-12-10T00:10:04.795Z,6.15
2016-12-10T00:11:05.518Z,6.15
2016-12-10T00:12:04.768Z,6.18
2016-12-10T00:13:04.680Z,6.13
2016-12-10T00:14:04.712Z,6.15
2016-12-10T00:15:05.166Z,6.07
2016-12-10T00:16:04.540Z,6.1
2016-12-10T00:17:04.525Z,6.1
2016-12-10T00:18:04.997Z,6.07
2016-12-10T00:19:04.631Z,6.07
2016-12-10T00:20:04.494Z,6.06
2016-12-10T00:21:05.205Z,6.09
2016-12-10T00:22:04.470Z,6.05
2016-12-10T00:23:04.456Z,6.07
2016-12-10T00:24:05.021Z,6.02
2016-12-10T00:25:04.651Z,6.05
2016-12-10T00:26:04.414Z,5.99
2016-12-10T00:27:04.426Z,5.99
2016-12-10T00:28:05.092Z,6.03
2016-12-10T00:29:04.380Z,6
2016-12-10T00:30:04.366Z,5.98
2016-12-10T00:31:04.356Z,5.99
2016-12-10T00:32:04.341Z,6
2016-12-10T00:33:04.329Z,6.02
2016-12-10T00:34:04.315Z,6
2016-12-10T00:35:04.306Z,6.05
2016-12-10T00:36:04.294Z,6.1
2016-12-10T00:37:04.279Z,6.1
2016-12-10T00:38:04.265Z,6.1
2016-12-10T00:39:04.253Z,6.09
2016-12-10T00:40:04.262Z,6.05
2016-12-10T00:41:04.229Z,6.07
2016-12-10T00:42:04.217Z,6.15
2016-12-10T00:43:04.210Z,6.1
2016-12-10T00:44:04.192Z,6.14
2016-12-10T00:45:04.179Z,6.25
2016-12-10T00:46:04.164Z,6.25
2016-12-10T00:47:04.158Z,6.21
2016-12-10T00:48:04.142Z,6.25
2016-12-10T00:49:04.129Z,6.28
2016-12-10T00:50:04.121Z,6.28
2016-12-10T00:51:04.104Z,6.25
2016-12-10T00:52:04.094Z,6.26
2016-12-10T00:53:04.084Z,6.29
2016-12-10T00:54:04.066Z,6.31
2016-12-10T00:55:04.058Z,6.34
2016-12-10T00:56:04.047Z,6.25
2016-12-10T00:57:04.027Z,6.26
2016-12-10T00:58:04.024Z,6.29
2016-12-10T00:59:04.010Z,6.15
2016-12-10T01:00:03.998Z,6.24
2016-12-10T01:01:03.985Z,6.09
2016-12-10T01:02:03.978Z,6.21
2016-12-10T01:03:03.962Z,6.2
2016-12-10T01:04:03.948Z,6.25
2016-12-10T01:05:03.936Z,6.18
2016-12-10T01:06:03.920Z,6.24
2016-12-10T01:07:03.916Z,6.28
2016-12-10T01:08:03.907Z,6.26
2016-12-10T01:09:03.888Z,6.26
2016-12-10T01:10:03.877Z,6.31
2016-12-10T01:11:03.861Z,6.26
2016-12-10T01:12:03.881Z,6.28
2016-12-10T01:13:03.840Z,6.33
2016-12-10T01:14:03.826Z,6.37
2016-12-10T01:15:03.813Z,6.33
2016-12-10T01:16:03.803Z,6.34
2016-12-10T01:17:03.786Z,6.42
2016-12-10T01:18:03.776Z,6.47
2016-12-10T01:19:03.767Z,6.36
2016-12-10T01:20:03.752Z,6.39
2016-12-10T01:21:03.751Z,6.42
2016-12-10T01:22:03.727Z,6.25
2016-12-10T01:23:03.715Z,6.29
2016-12-10T01:24:03.703Z,6.34
2016-12-10T01:25:03.690Z,6.34
2016-12-10T01:26:03.677Z,6.31
2016-12-10T01:27:03.982Z,6.2
2016-12-10T01:28:03.654Z,6.14
2016-12-10T01:29:03.644Z,6.06
2016-12-10T01:30:03.630Z,6.06
2016-12-10T01:31:03.624Z,5.99
2016-12-10T01:32:03.602Z,5.98
2016-12-10T01:33:03.591Z,5.89
2016-12-10T01:34:03.579Z,6
2016-12-10T01:35:03.569Z,5.84
2016-12-10T01:36:03.556Z,5.77
2016-12-10T01:37:03.543Z,5.84
2016-12-10T01:38:03.528Z,5.8
2016-12-10T01:39:03.518Z,5.8
2016-12-10T01:40:03.506Z,5.72
2016-12-10T01:41:03.493Z,5.72
2016-12-10T01:42:03.486Z,5.66
2016-12-10T01:43:03.467Z,5.69
2016-12-10T01:44:03.455Z,5.75
2016-12-10T01:45:03.441Z,5.6
2016-12-10T01:46:03.428Z,5.66
2016-12-10T01:47:03.417Z,5.66
2016-12-10T01:48:03.405Z,5.63
2016-12-10T01:49:03.392Z,5.63
2016-12-10T01:50:03.380Z,5.59
2016-12-10T01:51:03.367Z,5.62
2016-12-10T01:52:03.352Z,5.63
2016-12-10T01:53:03.340Z,5.64
2016-12-10T01:54:03.330Z,5.57
2016-12-10T01:55:03.316Z,5.57
2016-12-10T01:56:03.306Z,5.66
2016-12-10T01:57:03.288Z,5.67
2016-12-10T01:58:03.278Z,5.64
2016-12-10T01:59:03.263Z,5.69
2016-12-10T02:00:03.250Z,5.66
2016-12-10T02:01:03.238Z,5.63
2016-12-10T02:02:03.224Z,5.66
2016-12-10T02:03:03.212Z,5.67
2016-12-10T02:04:03.197Z,5.69
2016-12-10T02:05:03.187Z,5.63
2016-12-10T02:06:03.178Z,5.67
2016-12-10T02:07:03.480Z,5.77
2016-12-10T02:08:03.149Z,5.78
2016-12-10T02:09:03.137Z,5.96
2016-12-10T02:10:03.124Z,5.88
2016-12-10T02:11:03.111Z,5.99
2016-12-10T02:12:03.092Z,5.99
2016-12-10T02:13:03.111Z,5.95
2016-12-10T02:14:03.070Z,5.98
2016-12-10T02:15:03.058Z,5.98
2016-12-10T02:16:03.046Z,5.87
2016-12-10T02:17:03.036Z,5.91
2016-12-10T02:18:03.018Z,5.87
2016-12-10T02:19:03.008Z,5.88
2016-12-10T02:20:02.993Z,5.87
2016-12-10T02:21:02.979Z,5.92
2016-12-10T02:22:02.970Z,6
2016-12-10T02:23:02.956Z,5.96
2016-12-10T02:24:02.943Z,5.91
2016-12-10T02:25:03.247Z,5.82
2016-12-10T02:26:02.920Z,5.99
2016-12-10T02:27:02.906Z,5.88
2016-12-10T02:28:02.891Z,5.87
2016-12-10T02:29:02.876Z,5.84
2016-12-10T02:30:02.867Z,5.84
2016-12-10T02:31:02.851Z,5.89
2016-12-10T02:32:02.840Z,5.91
2016-12-10T02:33:02.830Z,5.85
2016-12-10T02:34:02.817Z,5.96
2016-12-10T02:35:02.805Z,5.88
2016-12-10T02:36:02.787Z,5.99
2016-12-10T02:37:02.776Z,6.03
2016-12-10T02:38:02.766Z,6.07
2016-12-10T02:39:02.754Z,6.14
2016-12-10T02:40:02.739Z,6.03
2016-12-10T02:41:02.728Z,5.98
2016-12-10T02:42:02.720Z,6
2016-12-10T02:43:02.704Z,6.03
2016-12-10T02:44:02.684Z,6.03
2016-12-10T02:45:02.674Z,6.07
2016-12-10T02:46:02.662Z,6.06
2016-12-10T02:47:02.658Z,6.1
2016-12-10T02:48:02.952Z,6.15
2016-12-10T02:49:02.630Z,6.07
2016-12-10T02:50:02.610Z,6.1
2016-12-10T02:51:02.600Z,6.13
2016-12-10T02:52:02.594Z,6.24
2016-12-10T02:53:02.741Z,6.31
2016-12-10T02:54:03.193Z,6.18
2016-12-10T02:55:02.551Z,6.26
2016-12-10T02:56:02.540Z,6.29
2016-12-10T02:57:02.523Z,6.29
2016-12-10T02:58:02.543Z,6.33
2016-12-10T02:59:02.502Z,6.39
2016-12-10T03:00:02.483Z,6.42
2016-12-10T03:01:02.478Z,6.37
2016-12-10T03:02:02.463Z,6.39
2016-12-10T03:03:02.451Z,6.18
2016-12-10T03:04:02.434Z,6.33
2016-12-10T03:05:02.425Z,6.24
2016-12-10T03:06:02.412Z,6.36
2016-12-10T03:07:02.398Z,6.31
2016-12-10T03:08:02.386Z,6.34
2016-12-10T03:09:02.379Z,6.33
2016-12-10T03:10:02.359Z,6.34
2016-12-10T03:11:02.349Z,6.24
2016-12-10T03:12:02.336Z,6.37
2016-12-10T03:13:02.326Z,6.34
2016-12-10T03:14:02.312Z,6.24
2016-12-10T03:15:02.298Z,6.34
2016-12-10T03:16:02.297Z,6.28
2016-12-10T03:17:02.271Z,6.29
2016-12-10T03:18:02.259Z,6.33
2016-12-10T03:19:02.248Z,6.33
2016-12-10T03:20:02.289Z,6.26
2016-12-10T03:21:02.222Z,6.18
2016-12-10T03:22:02.219Z,6.24
2016-12-10T03:23:02.251Z,6.13
2016-12-10T03:24:02.190Z,6.09
2016-12-10T03:25:02.173Z,6.03
2016-12-10T03:26:02.159Z,5.99
2016-12-10T03:27:02.154Z,5.96
2016-12-10T03:28:02.212Z,5.95
2016-12-10T03:29:02.118Z,6.02
2016-12-10T03:30:02.113Z,5.99
2016-12-10T03:31:02.099Z,5.91
2016-12-10T03:32:02.559Z,5.96
2016-12-10T03:33:02.072Z,5.92
2016-12-10T03:34:02.065Z,5.89
2016-12-10T03:35:02.049Z,5.98
2016-12-10T03:36:02.034Z,5.92
2016-12-10T03:37:02.020Z,5.89
2016-12-10T03:38:02.010Z,5.88
2016-12-10T03:39:01.996Z,5.96
2016-12-10T03:40:01.985Z,5.99
2016-12-10T03:41:01.970Z,5.8
2016-12-10T03:42:01.960Z,5.81
2016-12-10T03:43:01.946Z,5.78
2016-12-10T03:44:01.938Z,5.75
2016-12-10T03:45:01.922Z,5.69
2016-12-10T03:46:01.908Z,5.64
2016-12-10T03:47:01.893Z,5.67
2016-12-10T03:48:01.888Z,5.67
2016-12-10T03:49:01.868Z,5.67
2016-12-10T03:50:01.859Z,5.69
2016-12-10T03:51:01.845Z,5.57
2016-12-10T03:52:01.832Z,5.63
2016-12-10T03:53:01.820Z,5.63
2016-12-10T03:54:01.807Z,5.6
2016-12-10T03:55:01.894Z,5.6
2016-12-10T03:56:01.778Z,5.66
2016-12-10T03:57:01.773Z,5.63
2016-12-10T03:58:01.751Z,5.59
2016-12-10T03:59:01.741Z,5.62
2016-12-10T04:00:01.730Z,5.57
2016-12-10T04:01:01.718Z,5.52
2016-12-10T04:02:01.702Z,5.57
2016-12-10T04:03:01.690Z,5.57
2016-12-10T04:04:01.678Z,5.63
2016-12-10T04:05:01.663Z,5.54
2016-12-10T04:06:01.652Z,5.57
2016-12-10T04:07:01.641Z,5.51
2016-12-10T04:08:01.629Z,5.51
2016-12-10T04:09:01.613Z,5.46
2016-12-10T04:10:01.598Z,5.55
2016-12-10T04:11:01.590Z,5.54
2016-12-10T04:12:01.572Z,5.52
2016-12-10T04:13:01.569Z,5.55
2016-12-10T04:14:01.864Z,5.55
2016-12-10T04:15:01.537Z,5.51
2016-12-10T04:16:01.521Z,5.51
2016-12-10T04:17:01.514Z,5.57
2016-12-10T04:18:01.496Z,5.52
2016-12-10T04:19:01.485Z,5.66
2016-12-10T04:20:01.470Z,5.62
2016-12-10T04:21:01.459Z,5.64
2016-12-10T04:22:01.445Z,5.64
2016-12-10T04:23:01.432Z,5.77
2016-12-10T04:24:01.420Z,5.77
2016-12-10T04:25:01.435Z,5.8
2016-12-10T04:26:01.395Z,5.72
2016-12-10T04:27:01.381Z,5.72
2016-12-10T04:28:01.369Z,5.8
2016-12-10T04:29:01.358Z,5.81
2016-12-10T04:30:01.343Z,5.81
2016-12-10T04:31:01.331Z,5.85
2016-12-10T04:32:01.317Z,5.77
2016-12-10T04:33:01.305Z,5.78
2016-12-10T04:34:01.293Z,5.8
2016-12-10T04:35:01.280Z,5.78
2016-12-10T04:36:01.290Z,5.78
2016-12-10T04:37:01.253Z,5.81
2016-12-10T04:38:01.241Z,5.8
2016-12-10T04:39:01.233Z,5.78
2016-12-10T04:40:01.215Z,5.77
2016-12-10T04:41:01.202Z,5.7
2016-12-10T04:42:01.192Z,5.78
2016-12-10T04:43:01.187Z,5.75
2016-12-10T04:44:01.169Z,5.77
2016-12-10T04:45:01.148Z,5.72
2016-12-10T04:46:01.138Z,5.7
2016-12-10T04:47:01.124Z,5.77
2016-12-10T04:48:01.117Z,5.84
2016-12-10T04:49:01.094Z,5.81
2016-12-10T04:50:01.088Z,5.75
2016-12-10T04:51:01.073Z,5.88
2016-12-10T04:52:01.059Z,5.81
2016-12-10T04:53:01.048Z,5.75
2016-12-10T04:54:01.033Z,5.78
2016-12-10T04:55:01.022Z,5.75
2016-12-10T04:56:01.007Z,5.8
2016-12-10T04:57:00.994Z,5.82
2016-12-10T04:58:01.304Z,5.75
2016-12-10T04:59:00.969Z,5.8
2016-12-10T05:00:00.959Z,5.8
2016-12-10T05:01:00.943Z,5.78
2016-12-10T05:02:00.933Z,5.77
2016-12-10T05:03:00.926Z,5.75
2016-12-10T05:04:00.908Z,5.82
2016-12-10T05:05:00.894Z,5.77
2016-12-10T05:06:00.881Z,5.78
2016-12-10T05:07:00.878Z,5.84
2016-12-10T05:08:00.857Z,5.88
2016-12-10T05:09:00.844Z,5.91
2016-12-10T05:10:00.833Z,5.82
2016-12-10T05:11:00.819Z,5.92
2016-12-10T05:12:00.808Z,5.88
2016-12-10T05:13:00.792Z,5.87
2016-12-10T05:14:00.782Z,5.95
2016-12-10T05:15:00.764Z,5.84
2016-12-10T05:16:00.764Z,5.84
2016-12-10T05:17:00.742Z,5.88
2016-12-10T05:18:00.728Z,5.89
2016-12-10T05:19:00.720Z,5.96
2016-12-10T05:20:00.703Z,5.85
2016-12-10T05:21:00.725Z,5.89
2016-12-10T05:22:00.677Z,5.87
2016-12-10T05:23:00.667Z,5.88
2016-12-10T05:24:00.654Z,5.89
2016-12-10T05:25:00.640Z,5.91
2016-12-10T05:26:00.627Z,5.89
2016-12-10T05:27:00.618Z,5.88
2016-12-10T05:28:00.605Z,5.77
2016-12-10T05:29:00.591Z,5.88
2016-12-10T05:30:00.582Z,5.81
2016-12-10T05:31:00.559Z,5.78
2016-12-10T05:32:00.553Z,5.88
2016-12-10T05:33:00.540Z,5.81
2016-12-10T05:34:00.525Z,5.78
2016-12-10T05:35:00.826Z,5.82
2016-12-10T05:36:00.501Z,5.8
2016-12-10T05:37:00.489Z,5.87
2016-12-10T05:38:00.482Z,5.85
2016-12-10T05:39:00.463Z,5.92
2016-12-10T05:40:00.458Z,5.95
2016-12-10T05:41:00.437Z,5.89
2016-12-10T05:42:00.425Z,5.89
2016-12-10T05:43:00.418Z,6.02
2016-12-10T05:44:00.405Z,5.99
2016-12-10T05:45:00.390Z,6
2016-12-10T05:46:00.377Z,5.99
2016-12-10T05:47:00.363Z,6.03
2016-12-10T05:48:00.350Z,5.99
2016-12-10T05:49:00.368Z,5.99
2016-12-10T05:50:00.323Z,6.05
2016-12-10T05:51:00.318Z,5.96
2016-12-10T05:52:00.301Z,5.98
2016-12-10T05:53:00.286Z,6.06
2016-12-10T05:54:00.278Z,6.07
2016-12-10T05:55:00.261Z,6.14
2016-12-10T05:56:00.247Z,6.03
2016-12-10T05:57:00.234Z,6.05
2016-12-10T05:58:00.224Z,6.06
2016-12-10T05:59:00.213Z,6.1
2016-12-10T06:00:00.202Z,6.05
2016-12-10T06:01:00.189Z,6.1
2016-12-10T06:02:00.174Z,6.06
2016-12-10T06:03:00.161Z,6.07
2016-12-10T06:04:00.149Z,6.1
2016-12-10T06:05:00.164Z,6.13
2016-12-10T06:06:00.151Z,6.14
2016-12-10T06:07:00.110Z,6.15
2016-12-10T06:08:00.100Z,6.14
2016-12-10T06:09:00.087Z,6.06
2016-12-10T06:10:00.074Z,6.09
2016-12-10T06:11:00.438Z,6.02
2016-12-10T06:12:00.081Z,6.03
2016-12-10T06:13:00.039Z,6.05
2016-12-10T06:14:00.025Z,6.02
2016-12-10T06:15:00.013Z,5.99
2016-12-10T06:15:59.996Z,5.99
2016-12-10T06:16:59.985Z,6
2016-12-10T06:17:59.970Z,5.95
2016-12-10T06:18:59.958Z,5.88
2016-12-10T06:19:59.943Z,5.87
2016-12-10T06:20:59.935Z,5.87
2016-12-10T06:21:59.922Z,5.89
2016-12-10T06:22:59.911Z,5.87
2016-12-10T06:23:59.893Z,5.87
2016-12-10T06:24:59.881Z,5.72
2016-12-10T06:25:59.870Z,5.82
2016-12-10T06:26:59.859Z,5.82
2016-12-10T06:27:59.847Z,5.81
2016-12-10T06:28:59.833Z,5.85
2016-12-10T06:29:59.824Z,5.84
2016-12-10T06:30:59.810Z,5.8
2016-12-10T06:31:59.795Z,5.7
2016-12-10T06:32:59.805Z,5.69
2016-12-10T06:33:59.769Z,5.62
2016-12-10T06:35:00.039Z,5.62
2016-12-10T06:35:59.829Z,5.6
2016-12-10T06:36:59.729Z,5.55
2016-12-10T06:37:59.911Z,5.52
2016-12-10T06:38:59.706Z,5.48
2016-12-10T06:39:59.696Z,5.42
2016-12-10T06:40:59.681Z,5.46
2016-12-10T06:42:00.203Z,5.41
2016-12-10T06:42:59.654Z,5.44
2016-12-10T06:43:59.646Z,5.41
2016-12-10T06:44:59.629Z,5.39
2016-12-10T06:45:59.618Z,5.39
2016-12-10T06:46:59.606Z,5.36
2016-12-10T06:47:59.593Z,5.27
2016-12-10T06:48:59.582Z,5.26
2016-12-10T06:49:59.568Z,5.13
2016-12-10T06:50:59.561Z,5.18
2016-12-10T06:51:59.670Z,5.2
2016-12-10T06:52:59.528Z,5.05
2016-12-10T06:53:59.512Z,5.09
2016-12-10T06:54:59.506Z,5.08
2016-12-10T06:55:59.489Z,5.05
2016-12-10T06:56:59.483Z,5
2016-12-10T06:57:59.461Z,5.03
2016-12-10T06:58:59.572Z,5.09
2016-12-10T06:59:59.442Z,5.21
2016-12-10T07:00:59.704Z,5.21
2016-12-10T07:01:59.412Z,5.21
2016-12-10T07:02:59.402Z,5.3
2016-12-10T07:03:59.386Z,5.23
2016-12-10T07:04:59.375Z,5.37
2016-12-10T07:05:59.467Z,5.41
2016-12-10T07:06:59.349Z,5.39
2016-12-10T07:07:59.335Z,5.45
2016-12-10T07:08:59.322Z,5.49
2016-12-10T07:09:59.461Z,5.45
2016-12-10T07:10:59.299Z,5.48
2016-12-10T07:11:59.285Z,5.48
2016-12-10T07:12:59.323Z,5.55
2016-12-10T07:13:59.256Z,5.54
2016-12-10T07:14:59.244Z,5.6
2016-12-10T07:15:59.245Z,5.59
2016-12-10T07:16:59.219Z,5.69
2016-12-10T07:17:59.230Z,5.73
2016-12-10T07:18:59.506Z,5.77
2016-12-10T07:19:59.182Z,5.77
2016-12-10T07:20:59.164Z,5.72
2016-12-10T07:21:59.155Z,5.72
2016-12-10T07:22:59.147Z,5.72
2016-12-10T07:23:59.306Z,5.75
2016-12-10T07:24:59.373Z,5.84
2016-12-10T07:25:59.103Z,5.81
2016-12-10T07:26:59.095Z,5.88
2016-12-10T07:27:59.078Z,5.89
2016-12-10T07:28:59.063Z,5.84
2016-12-10T07:29:59.052Z,5.89
2016-12-10T07:30:59.199Z,5.95
2016-12-10T07:31:59.027Z,5.99
2016-12-10T07:32:59.014Z,5.99
2016-12-10T07:33:59.009Z,5.99
2016-12-10T07:34:59.152Z,5.98
2016-12-10T07:35:59.234Z,5.92
2016-12-10T07:36:58.968Z,5.95
2016-12-10T07:37:58.953Z,5.92
2016-12-10T07:38:58.938Z,5.98
2016-12-10T07:39:58.928Z,5.98
2016-12-10T07:40:59.046Z,5.88
2016-12-10T07:41:58.900Z,5.92
2016-12-10T07:42:58.891Z,5.91
2016-12-10T07:43:58.874Z,5.91
2016-12-10T07:44:58.862Z,5.96
2016-12-10T07:45:58.853Z,5.91
2016-12-10T07:46:58.838Z,6
2016-12-10T07:47:58.825Z,6.02
2016-12-10T07:48:58.813Z,6.06
2016-12-10T07:49:58.798Z,6.1
2016-12-10T07:50:58.788Z,6.13
2016-12-10T07:51:58.769Z,6.14
2016-12-10T07:52:58.762Z,6.09
2016-12-10T07:53:58.748Z,6.07
2016-12-10T07:54:58.737Z,6.13
2016-12-10T07:55:58.721Z,6.2
2016-12-10T07:56:58.709Z,6.18
2016-12-10T07:57:58.699Z,6.25
2016-12-10T07:58:58.746Z,6.24
2016-12-10T07:59:58.987Z,6.21
2016-12-10T08:00:58.657Z,6.29
2016-12-10T08:01:58.647Z,6.39
2016-12-10T08:02:58.636Z,6.49
2016-12-10T08:03:58.620Z,6.54
2016-12-10T08:04:58.608Z,6.54
2016-12-10T08:05:58.596Z,6.47
2016-12-10T08:06:58.585Z,6.6
2016-12-10T08:07:58.577Z,6.47
2016-12-10T08:08:58.560Z,6.6
2016-12-10T08:09:58.872Z,6.67
2016-12-10T08:10:58.534Z,6.67
2016-12-10T08:11:58.520Z,6.6
2016-12-10T08:12:58.508Z,6.64
2016-12-10T08:13:58.523Z,6.51
2016-12-10T08:14:58.482Z,6.55
2016-12-10T08:15:58.475Z,6.61
2016-12-10T08:16:58.464Z,6.57
2016-12-10T08:17:58.483Z,6.62
2016-12-10T08:18:58.436Z,6.55
2016-12-10T08:19:58.424Z,6.58
2016-12-10T08:20:58.411Z,6.64
2016-12-10T08:21:58.403Z,6.72
2016-12-10T08:22:58.390Z,6.7
2016-12-10T08:23:58.378Z,6.68
2016-12-10T08:24:58.420Z,6.8
2016-12-10T08:25:58.437Z,6.7
2016-12-10T08:26:58.446Z,6.7
2016-12-10T08:27:58.333Z,6.72
2016-12-10T08:28:58.317Z,6.8
2016-12-10T08:29:58.307Z,6.7
2016-12-10T08:30:58.291Z,6.79
2016-12-10T08:31:58.281Z,6.83
2016-12-10T08:32:58.267Z,6.82
2016-12-10T08:33:58.255Z,6.82
2016-12-10T08:34:58.400Z,6.85
2016-12-10T08:35:58.394Z,6.94
2016-12-10T08:36:58.221Z,6.91
2016-12-10T08:37:58.208Z,6.88
2016-12-10T08:38:58.360Z,7
2016-12-10T08:39:58.184Z,6.98
2016-12-10T08:40:58.171Z,7.03
2016-12-10T08:41:58.159Z,7.01
2016-12-10T08:42:58.144Z,7.03
2016-12-10T08:43:58.260Z,7.04
2016-12-10T08:44:58.127Z,7.04
2016-12-10T08:45:58.268Z,6.95
2016-12-10T08:46:58.101Z,7.03
2016-12-10T08:47:58.084Z,7.05
2016-12-10T08:48:58.079Z,6.98
2016-12-10T08:49:58.111Z,6.94
2016-12-10T08:50:58.205Z,7.03
2016-12-10T08:51:58.099Z,7.04
2016-12-10T08:52:58.028Z,7.08
2016-12-10T08:53:58.017Z,7.05
2016-12-10T08:54:58.009Z,7.08
2016-12-10T08:55:58.600Z,7.08
2016-12-10T08:56:57.986Z,7.04
2016-12-10T08:57:57.970Z,7.03
2016-12-10T08:58:57.955Z,7.05
2016-12-10T08:59:57.945Z,7.05
2016-12-10T09:00:57.937Z,7.08
2016-12-10T09:01:57.925Z,7.01
2016-12-10T09:02:57.910Z,7
2016-12-10T09:03:57.922Z,7.03
2016-12-10T09:04:57.890Z,7.05
2016-12-10T09:05:57.876Z,6.98
2016-12-10T09:06:57.867Z,7.03
2016-12-10T09:07:57.855Z,7.03
2016-12-10T09:08:57.840Z,7.03
2016-12-10T09:09:57.829Z,7.03
2016-12-10T09:10:57.835Z,7.05
2016-12-10T09:11:57.805Z,7.12
2016-12-10T09:12:57.800Z,7.12
2016-12-10T09:13:57.783Z,7.08
2016-12-10T09:14:57.774Z,7.08
2016-12-10T09:15:57.760Z,6.97
2016-12-10T09:16:57.748Z,7.12
2016-12-10T09:17:57.737Z,7.12
2016-12-10T09:18:57.721Z,7.01
2016-12-10T09:19:57.714Z,7.12
2016-12-10T09:20:57.705Z,7.13
2016-12-10T09:21:57.694Z,7.09
2016-12-10T09:22:57.682Z,7.19
2016-12-10T09:23:57.670Z,7.13
2016-12-10T09:24:57.656Z,7.15
2016-12-10T09:25:57.649Z,7.13
2016-12-10T09:26:57.636Z,7.12
2016-12-10T09:27:57.623Z,7.15
2016-12-10T09:28:57.611Z,7.15
2016-12-10T09:29:57.596Z,7.12
2016-12-10T09:30:57.586Z,7.04
2016-12-10T09:31:57.892Z,7.11
2016-12-10T09:32:57.564Z,7.11
2016-12-10T09:33:57.553Z,7.12
2016-12-10T09:34:57.576Z,7.12
2016-12-10T09:35:57.527Z,7.18
2016-12-10T09:36:57.514Z,7.19
2016-12-10T09:37:57.504Z,7.23
2016-12-10T09:38:57.492Z,7.16
2016-12-10T09:39:57.482Z,7.13
2016-12-10T09:40:57.470Z,7.18
2016-12-10T09:41:57.459Z,7.21
2016-12-10T09:42:57.445Z,7.16
2016-12-10T09:43:57.438Z,7.21
2016-12-10T09:44:57.424Z,7.18
2016-12-10T09:45:57.417Z,7.26
2016-12-10T09:46:57.402Z,7.27
2016-12-10T09:47:57.387Z,7.23
2016-12-10T09:48:57.378Z,7.23
2016-12-10T09:49:57.681Z,7.21
2016-12-10T09:50:57.357Z,7.26
2016-12-10T09:51:57.342Z,7.23
2016-12-10T09:52:57.342Z,7.22
2016-12-10T09:53:57.348Z,7.27
2016-12-10T09:54:57.311Z,7.29
2016-12-10T09:55:57.316Z,7.27
2016-12-10T09:56:57.286Z,7.37
2016-12-10T09:57:57.272Z,7.36
2016-12-10T09:58:57.265Z,7.44
2016-12-10T09:59:57.254Z,7.44
2016-12-10T10:00:57.244Z,7.44
2016-12-10T10:01:57.235Z,7.44
2016-12-10T10:02:57.220Z,7.55
2016-12-10T10:03:57.213Z,7.4
2016-12-10T10:04:57.198Z,7.44
2016-12-10T10:05:57.188Z,7.51
2016-12-10T10:06:57.173Z,7.49
2016-12-10T10:07:57.191Z,7.51
2016-12-10T10:08:57.149Z,7.56
2016-12-10T10:09:57.140Z,7.55
2016-12-10T10:10:57.130Z,7.54
2016-12-10T10:11:57.119Z,7.56
2016-12-10T10:12:57.109Z,7.54
2016-12-10T10:13:57.095Z,7.58
2016-12-10T10:14:57.085Z,7.63
2016-12-10T10:15:57.076Z,7.63
2016-12-10T10:16:57.060Z,7.7
2016-12-10T10:17:57.051Z,7.77
2016-12-10T10:18:57.041Z,7.85
2016-12-10T10:19:57.027Z,7.83
2016-12-10T10:20:57.021Z,7.77
2016-12-10T10:21:57.003Z,7.88
2016-12-10T10:22:56.993Z,7.93
2016-12-10T10:23:56.984Z,7.91
2016-12-10T10:24:56.972Z,7.93
2016-12-10T10:25:56.965Z,7.99
2016-12-10T10:26:56.954Z,8.04
2016-12-10T10:27:57.264Z,8.03
2016-12-10T10:28:56.927Z,8.04
2016-12-10T10:29:56.917Z,8.11
2016-12-10T10:30:56.904Z,8.13
2016-12-10T10:31:56.895Z,8.19
2016-12-10T10:32:56.884Z,8.22
2016-12-10T10:33:56.873Z,8.17
2016-12-10T10:34:56.863Z,8.28
2016-12-10T10:35:56.856Z,8.35
2016-12-10T10:36:56.841Z,8.47
2016-12-10T10:37:56.837Z,8.61
2016-12-10T10:38:56.820Z,8.57
2016-12-10T10:39:56.813Z,8.69
2016-12-10T10:40:56.798Z,8.72
2016-12-10T10:41:56.790Z,8.79
2016-12-10T10:42:56.777Z,8.94
2016-12-10T10:43:56.773Z,8.94
2016-12-10T10:44:56.755Z,8.86
2016-12-10T10:45:56.749Z,8.89
2016-12-10T10:46:56.736Z,9.03
2016-12-10T10:47:56.728Z,8.95
2016-12-10T10:48:56.716Z,9.01
2016-12-10T10:49:56.709Z,8.95
2016-12-10T10:50:56.695Z,8.95
2016-12-10T10:51:56.688Z,8.9
2016-12-10T10:52:56.679Z,8.97
2016-12-10T10:53:56.672Z,8.8
2016-12-10T10:54:56.654Z,8.82
2016-12-10T10:55:56.650Z,8.85
2016-12-10T10:56:56.635Z,8.8
2016-12-10T10:57:56.624Z,8.72
2016-12-10T10:58:56.614Z,8.82
2016-12-10T10:59:56.603Z,8.76
2016-12-10T11:00:56.599Z,8.65
2016-12-10T11:01:56.584Z,8.69
2016-12-10T11:02:56.576Z,8.72
2016-12-10T11:03:56.883Z,8.79
2016-12-10T11:04:56.554Z,8.83
2016-12-10T11:05:56.543Z,8.83
2016-12-10T11:06:56.535Z,8.83
2016-12-10T11:07:56.525Z,8.83
2016-12-10T11:08:56.514Z,8.79
2016-12-10T11:09:56.501Z,8.86
2016-12-10T11:10:56.491Z,8.79
2016-12-10T11:11:56.489Z,8.82
2016-12-10T11:12:56.472Z,8.74
2016-12-10T11:13:56.466Z,8.74
2016-12-10T11:14:56.454Z,8.72
2016-12-10T11:15:56.440Z,8.77
2016-12-10T11:16:56.430Z,8.71
2016-12-10T11:17:56.422Z,8.74
2016-12-10T11:18:56.414Z,8.67
2016-12-10T11:19:56.401Z,8.71
2016-12-10T11:20:56.390Z,8.71
2016-12-10T11:21:56.382Z,8.76
2016-12-10T11:22:56.370Z,8.74
2016-12-10T11:23:56.361Z,8.67
2016-12-10T11:24:56.355Z,8.67
2016-12-10T11:25:56.350Z,8.68
2016-12-10T11:26:56.333Z,8.72
2016-12-10T11:27:56.318Z,8.71
2016-12-10T11:28:56.311Z,8.61
2016-12-10T11:29:56.301Z,8.61
2016-12-10T11:30:56.298Z,8.64
2016-12-10T11:31:56.278Z,8.61
2016-12-10T11:32:56.268Z,8.53
2016-12-10T11:33:56.260Z,8.5
2016-12-10T11:34:56.253Z,8.58
2016-12-10T11:35:56.235Z,8.6
2016-12-10T11:36:56.255Z,8.47
2016-12-10T11:37:56.216Z,8.47
2016-12-10T11:38:56.207Z,8.4
2016-12-10T11:39:56.199Z,8.46
2016-12-10T11:40:56.186Z,8.47
2016-12-10T11:41:56.176Z,8.4
2016-12-10T11:42:56.167Z,8.32
2016-12-10T11:43:56.155Z,8.39
2016-12-10T11:44:56.150Z,8.34
2016-12-10T11:45:56.142Z,8.34
2016-12-10T11:46:56.126Z,8.34
2016-12-10T11:47:56.117Z,8.34
2016-12-10T11:48:56.106Z,8.36
2016-12-10T11:49:56.095Z,8.35
2016-12-10T11:50:56.087Z,8.31
2016-12-10T11:51:56.075Z,8.34
2016-12-10T11:52:56.069Z,8.43
2016-12-10T11:53:56.057Z,8.35
2016-12-10T11:54:56.045Z,8.43
2016-12-10T11:55:56.034Z,8.44
2016-12-10T11:56:56.023Z,8.39
2016-12-10T11:57:56.014Z,8.4
2016-12-10T11:58:56.007Z,8.35
2016-12-10T11:59:55.993Z,8.34
2016-12-10T12:00:55.981Z,8.34
2016-12-10T12:01:55.973Z,8.31
2016-12-10T12:02:55.964Z,8.28
2016-12-10T12:03:55.952Z,8.24
2016-12-10T12:04:55.946Z,8.26
2016-12-10T12:05:55.935Z,8.22
2016-12-10T12:06:55.922Z,8.24
2016-12-10T12:07:55.910Z,8.24
2016-12-10T12:08:55.900Z,8.26
2016-12-10T12:09:55.924Z,8.32
2016-12-10T12:10:55.882Z,8.32
2016-12-10T12:11:55.871Z,8.31
2016-12-10T12:12:55.862Z,8.35
2016-12-10T12:13:55.851Z,8.43
2016-12-10T12:14:55.838Z,8.39
2016-12-10T12:15:55.830Z,8.31
2016-12-10T12:16:55.819Z,8.34
2016-12-10T12:17:55.811Z,8.29
2016-12-10T12:18:55.798Z,8.32
2016-12-10T12:19:55.788Z,8.31
2016-12-10T12:20:55.798Z,8.42
2016-12-10T12:21:55.772Z,8.43
2016-12-10T12:22:55.759Z,8.47
2016-12-10T12:23:55.746Z,8.52
2016-12-10T12:24:55.738Z,8.44
2016-12-10T12:25:55.729Z,8.44
2016-12-10T12:26:55.722Z,8.49
2016-12-10T12:27:55.707Z,8.44
2016-12-10T12:28:55.695Z,8.52
2016-12-10T12:29:55.686Z,8.46
2016-12-10T12:30:55.682Z,8.5
2016-12-10T12:31:55.672Z,8.57
2016-12-10T12:32:55.660Z,8.6
2016-12-10T12:33:55.646Z,8.6
2016-12-10T12:34:55.635Z,8.64
2016-12-10T12:35:55.626Z,8.57
2016-12-10T12:36:55.615Z,8.6
2016-12-10T12:37:55.630Z,8.58
2016-12-10T12:38:55.598Z,8.5
2016-12-10T12:39:55.583Z,8.5
2016-12-10T12:40:55.575Z,8.54
2016-12-10T12:41:55.563Z,8.61
2016-12-10T12:42:55.553Z,8.54
2016-12-10T12:43:55.544Z,8.52
2016-12-10T12:44:55.531Z,8.57
2016-12-10T12:45:55.520Z,8.49
2016-12-10T12:46:55.516Z,8.6
2016-12-10T12:47:55.500Z,8.58
2016-12-10T12:48:55.490Z,8.49
2016-12-10T12:49:55.483Z,8.47
2016-12-10T12:50:55.471Z,8.46
2016-12-10T12:51:55.459Z,8.28
2016-12-10T12:52:55.453Z,8.36
2016-12-10T12:53:55.441Z,8.28
2016-12-10T12:54:55.430Z,8.28
2016-12-10T12:55:55.442Z,8.29
2016-12-10T12:56:55.410Z,8.29
2016-12-10T12:57:55.400Z,8.24
2016-12-10T12:58:55.390Z,8.32
2016-12-10T12:59:55.383Z,8.21
2016-12-10T13:00:55.367Z,8.21
2016-12-10T13:01:55.361Z,8.21
2016-12-10T13:02:55.354Z,8.32
2016-12-10T13:03:55.341Z,8.21
2016-12-10T13:04:55.340Z,8.17
2016-12-10T13:05:55.320Z,8.22
2016-12-10T13:06:55.314Z,8.16
2016-12-10T13:07:55.298Z,8.25
2016-12-10T13:08:55.285Z,8.21
2016-12-10T13:09:55.277Z,8.24
2016-12-10T13:10:55.267Z,8.1
2016-12-10T13:11:55.260Z,8.21
2016-12-10T13:12:55.246Z,8.07
2016-12-10T13:13:55.236Z,8.09
2016-12-10T13:14:55.225Z,8.17
2016-12-10T13:15:55.214Z,8.04
2016-12-10T13:16:55.204Z,8.16
2016-12-10T13:17:55.194Z,8.19
2016-12-10T13:18:55.186Z,8.17
2016-12-10T13:19:55.174Z,8.19
2016-12-10T13:20:55.159Z,8.19